Merrimack, New Hampshire
Current Conditions -  °F | °C
As of 7:53 PM on Monday 26 Jan 2015 (Local Time) from KMHT Reporting Station
Light Snow Light Snow  
Wind Chill:   Ceiling: 2500
Heat Index: 18°   Visibility: 4mi
Dew Point:   Wind: 14mph
Humidity: 65%   Direction: 30°NNE
Pressure: 30.08"   Gusts: 23mph
Location:  42.86°N, 71.49°W
Report Text: KMHT 270053Z 03012G20KT 4SM -SN OVC025 M08/M13 A3008 RMK AO2 SNB16 SLP207 P0000 T10781133
Loading
Personal Weather Stations






























Interactive Weather Map New forecast layout! Learn more

10-Day Weather Forecast

Advertisements
Track Severe Weather on mobile